createdAt,value
2024-03-07T00:00:16.266Z,99609.47
2024-03-07T00:02:49.139Z,99606.13
2024-03-07T00:05:17.214Z,99596.72
2024-03-07T00:07:44.038Z,99609.66
2024-03-07T00:10:11.795Z,99616.28
2024-03-07T00:12:41.695Z,99611.31
2024-03-07T00:15:10.317Z,99615.31
2024-03-07T00:17:37.064Z,99616.13
2024-03-07T00:20:05.597Z,99604.19
2024-03-07T00:22:32.631Z,99615.09
2024-03-07T00:24:59.153Z,99612.44
2024-03-07T00:27:27.287Z,99599.78
2024-03-07T00:29:58.113Z,99610.75
2024-03-07T00:32:25.050Z,99604.56
2024-03-07T00:34:51.756Z,99610.75
2024-03-07T00:37:18.698Z,99609.84
2024-03-07T00:39:45.213Z,99596.28
2024-03-07T00:42:11.704Z,99605.59
2024-03-07T00:44:38.279Z,99612.44
2024-03-07T00:47:05.799Z,99604.84
2024-03-07T00:49:32.552Z,99616.63
2024-03-07T00:52:00.318Z,99603.69
2024-03-07T00:54:27.053Z,99607.53
2024-03-07T00:56:54.248Z,99604.84
2024-03-07T00:59:21.849Z,99604.75
2024-03-07T01:01:48.423Z,99602.25
2024-03-07T01:04:14.929Z,99600.78
2024-03-07T01:06:42.364Z,99592.44
2024-03-07T01:09:15.190Z,99600.13
2024-03-07T01:11:49.276Z,99605.22
2024-03-07T01:14:16.104Z,99606.13
2024-03-07T01:16:42.750Z,99600.22
2024-03-07T01:19:09.816Z,99597.63
2024-03-07T01:21:38.893Z,99607.97
2024-03-07T01:24:06.553Z,99600.41
2024-03-07T01:26:34.923Z,99600.59
2024-03-07T01:29:01.706Z,99593.19
2024-03-07T01:31:28.210Z,99592.53
2024-03-07T01:33:55.908Z,99594.13
2024-03-07T01:36:22.925Z,99590.97
2024-03-07T01:38:49.661Z,99595.41
2024-03-07T01:41:16.471Z,99592.16
2024-03-07T01:43:43.962Z,99599.94
2024-03-07T01:46:11.533Z,99596.69
2024-03-07T01:48:39.577Z,99599.28
2024-03-07T01:51:06.759Z,99588.56
2024-03-07T01:53:34.177Z,99605.72
2024-03-07T01:56:01.459Z,99592.25
2024-03-07T01:58:30.259Z,99599.81
2024-03-07T02:00:57.017Z,99595.56
2024-03-07T02:03:23.600Z,99592.25
2024-03-07T02:05:50.480Z,99599.16
2024-03-07T02:08:17.135Z,99594.06
2024-03-07T02:10:43.791Z,99599.31
2024-03-07T02:13:10.326Z,99595.19
2024-03-07T02:15:36.875Z,99596.88
2024-03-07T02:18:03.750Z,99589.38
2024-03-07T02:20:30.494Z,99595.31
2024-03-07T02:22:57.236Z,99588.84
2024-03-07T02:25:23.728Z,99583.75
2024-03-07T02:27:50.333Z,99591.31
2024-03-07T02:30:19.852Z,99599.44
2024-03-07T02:32:53.143Z,99583.25
2024-03-07T02:35:20.264Z,99590.28
2024-03-07T02:37:49.530Z,99593.03
2024-03-07T02:40:17.270Z,99571.94
2024-03-07T02:42:44.338Z,99589.06
2024-03-07T02:45:14.060Z,99583.03
2024-03-07T02:47:40.633Z,99588.66
2024-03-07T02:50:07.582Z,99581.81
2024-03-07T02:52:34.166Z,99582.47
2024-03-07T02:55:00.696Z,99586.31
2024-03-07T02:57:27.191Z,99584.31
2024-03-07T02:59:53.754Z,99582.47
2024-03-07T03:02:20.343Z,99584.13
2024-03-07T03:04:46.883Z,99582.72
2024-03-07T03:07:13.372Z,99584.56
2024-03-07T03:09:44.247Z,99586.97
2024-03-07T03:12:11.770Z,99590.66
2024-03-07T03:14:38.828Z,99587.50
2024-03-07T03:17:05.651Z,99593.50
2024-03-07T03:19:32.179Z,99591.22
2024-03-07T03:21:58.923Z,99580.69
2024-03-07T03:24:26.738Z,99587.53
2024-03-07T03:26:53.428Z,99593.22
2024-03-07T03:29:20.060Z,99590.66
2024-03-07T03:31:46.545Z,99588.91
2024-03-07T03:34:13.035Z,99586.56
2024-03-07T03:36:39.917Z,99593.22
2024-03-07T03:39:08.116Z,99588.44
2024-03-07T03:41:34.738Z,99586.81
2024-03-07T03:44:01.290Z,99600.50
2024-03-07T03:46:27.790Z,99602.50
2024-03-07T03:48:54.291Z,99591.50
2024-03-07T03:51:23.026Z,99597.59
2024-03-07T03:53:50.288Z,99595.34
2024-03-07T03:56:17.117Z,99591.84
2024-03-07T03:58:44.449Z,99591.09
2024-03-07T04:01:14.463Z,99597.31
2024-03-07T04:03:41.691Z,99590.66
2024-03-07T04:06:08.300Z,99600.81
2024-03-07T04:08:37.944Z,99597.47
2024-03-07T04:11:11.093Z,99601.97
2024-03-07T04:13:37.882Z,99597.97
2024-03-07T04:16:05.546Z,99609.03
2024-03-07T04:18:33.432Z,99600.63
2024-03-07T04:21:00.343Z,99606.63
2024-03-07T04:23:27.184Z,99611.84
2024-03-07T04:25:53.810Z,99614.50
2024-03-07T04:28:20.570Z,99603.63
2024-03-07T04:30:47.199Z,99615.59
2024-03-07T04:33:14.062Z,99608.94
2024-03-07T04:35:40.749Z,99618.16
2024-03-07T04:38:12.742Z,99610.59
2024-03-07T04:40:40.228Z,99616.84
2024-03-07T04:43:06.938Z,99619.41
2024-03-07T04:45:33.519Z,99627.94
2024-03-07T04:48:00.181Z,99613.41
2024-03-07T04:50:27.743Z,99621.09
2024-03-07T04:52:54.605Z,99622.75
2024-03-07T04:55:21.240Z,99615.41
2024-03-07T04:57:48.123Z,99620.56
2024-03-07T05:00:17.284Z,99629.91
2024-03-07T05:02:47.564Z,99625.06
2024-03-07T05:05:14.940Z,99612.41
2024-03-07T05:07:41.730Z,99623.47
2024-03-07T05:10:09.296Z,99631.88
2024-03-07T05:12:36.271Z,99632.88
2024-03-07T05:15:05.217Z,99628.94
2024-03-07T05:17:35.434Z,99631.34
2024-03-07T05:20:02.540Z,99627.44
2024-03-07T05:22:31.642Z,99625.88
2024-03-07T05:24:59.840Z,99631.31
2024-03-07T05:27:26.700Z,99640.06
2024-03-07T05:29:53.366Z,99629.97
2024-03-07T05:32:27.759Z,99640.72
2024-03-07T05:34:55.002Z,99638.91
2024-03-07T05:37:25.078Z,99636.31
2024-03-07T05:39:53.281Z,99636.41
2024-03-07T05:42:20.159Z,99642.63
2024-03-07T05:44:46.761Z,99647.94
2024-03-07T05:47:17.291Z,99638.28
2024-03-07T05:49:44.693Z,99639.97
2024-03-07T05:52:11.286Z,99645.13
2024-03-07T05:54:37.875Z,99652.72
2024-03-07T05:57:07.215Z,99666.44
2024-03-07T05:59:34.503Z,99662.78
2024-03-07T06:02:01.188Z,99663.31
2024-03-07T06:04:27.695Z,99656.59
2024-03-07T06:06:55.109Z,99666.50
2024-03-07T06:09:24.797Z,99673.34
2024-03-07T06:11:51.790Z,99664.66
2024-03-07T06:14:19.213Z,99672.09
2024-03-07T06:16:46.116Z,99664.53
2024-03-07T06:19:12.820Z,99666.88
2024-03-07T06:21:42.064Z,99671.19
2024-03-07T06:24:11.417Z,99672.59
2024-03-07T06:26:42.336Z,99672.34
2024-03-07T06:29:09.535Z,99672.28
2024-03-07T06:31:36.040Z,99665.56
2024-03-07T06:34:02.828Z,99670.38
2024-03-07T06:36:29.440Z,99674.41
2024-03-07T06:38:55.998Z,99675.13
2024-03-07T06:41:22.677Z,99681.72
2024-03-07T06:43:51.084Z,99678.25
2024-03-07T06:46:17.805Z,99664.66
2024-03-07T06:48:45.492Z,99681.00
2024-03-07T06:51:12.229Z,99681.56
2024-03-07T06:53:39.850Z,99684.09
2024-03-07T06:56:07.566Z,99680.66
2024-03-07T06:58:34.511Z,99683.78
2024-03-07T07:01:02.565Z,99688.59
2024-03-07T07:03:33.380Z,99682.28
2024-03-07T07:06:00.296Z,99673.63
2024-03-07T07:08:27.159Z,99687.75
2024-03-07T07:10:55.753Z,99695.31
2024-03-07T07:13:22.848Z,99692.31
2024-03-07T07:15:52.320Z,99684.81
2024-03-07T07:18:18.895Z,99694.63
2024-03-07T07:20:45.787Z,99700.41
2024-03-07T07:23:12.317Z,99698.41
2024-03-07T07:25:38.815Z,99695.81
2024-03-07T07:28:06.150Z,99702.97
2024-03-07T07:30:33.135Z,99705.47
2024-03-07T07:32:59.784Z,99706.06
2024-03-07T07:35:26.498Z,99688.13
2024-03-07T07:37:54.972Z,99709.78
2024-03-07T07:40:23.767Z,99700.53
2024-03-07T07:42:55.030Z,99704.28
2024-03-07T07:45:23.058Z,99698.19
2024-03-07T07:47:52.766Z,99699.75
2024-03-07T07:50:24.796Z,99708.19
2024-03-07T07:52:54.759Z,99697.09
2024-03-07T07:55:23.138Z,99707.44
2024-03-07T07:57:55.282Z,99705.78
2024-03-07T08:00:23.808Z,99716.63
2024-03-07T08:02:58.996Z,99718.63
2024-03-07T08:05:28.514Z,99722.88
2024-03-07T08:08:00.650Z,99726.13
2024-03-07T08:10:31.545Z,99724.78
2024-03-07T08:12:59.546Z,99725.53
2024-03-07T08:15:29.185Z,99717.97
2024-03-07T08:17:57.497Z,99720.97
2024-03-07T08:20:27.186Z,99715.84
2024-03-07T08:22:56.373Z,99731.03
2024-03-07T08:25:28.757Z,99727.44
2024-03-07T08:27:57.598Z,99736.09
2024-03-07T08:30:25.476Z,99731.63
2024-03-07T08:32:56.814Z,99724.28
2024-03-07T08:35:24.464Z,99723.28
2024-03-07T08:37:56.410Z,99733.38
2024-03-07T08:40:27.387Z,99742.63
2024-03-07T08:42:55.744Z,99747.41
2024-03-07T08:45:22.222Z,99744.81
2024-03-07T08:47:51.526Z,99748.88
2024-03-07T08:50:21.848Z,99753.13
2024-03-07T08:52:50.224Z,99748.78
2024-03-07T08:55:22.132Z,99748.69
2024-03-07T08:57:50.271Z,99751.09
2024-03-07T09:00:28.500Z,99730.34
2024-03-07T09:03:01.887Z,99745.47
2024-03-07T09:05:34.713Z,99746.31
2024-03-07T09:08:01.726Z,99752.19
2024-03-07T09:10:31.161Z,99756.28
2024-03-07T09:12:58.601Z,99740.09
2024-03-07T09:15:25.411Z,99753.69
2024-03-07T09:17:54.374Z,99756.22
2024-03-07T09:20:21.837Z,99757.63
2024-03-07T09:22:52.122Z,99751.50
2024-03-07T09:25:20.661Z,99765.94
2024-03-07T09:27:47.652Z,99754.94
2024-03-07T09:30:16.371Z,99753.94
2024-03-07T09:32:43.598Z,99754.66
2024-03-07T09:35:14.718Z,99768.09
2024-03-07T09:37:42.749Z,99763.78
2024-03-07T09:40:13.594Z,99769.75
2024-03-07T09:42:53.476Z,99753.56
2024-03-07T09:45:24.338Z,99766.44
2024-03-07T09:47:53.737Z,99765.41
2024-03-07T09:50:25.934Z,99768.75
2024-03-07T09:52:56.422Z,99776.06
2024-03-07T09:55:26.753Z,99761.88
2024-03-07T09:57:54.350Z,99774.25
2024-03-07T10:00:25.874Z,99771.00
2024-03-07T10:03:02.966Z,99765.22
2024-03-07T10:05:31.012Z,99764.84
2024-03-07T10:07:57.772Z,99766.63
2024-03-07T10:10:24.918Z,99765.97
2024-03-07T10:12:54.505Z,99770.31
2024-03-07T10:15:21.145Z,99764.84
2024-03-07T10:17:48.137Z,99761.78
2024-03-07T10:20:21.655Z,99770.97
2024-03-07T10:22:50.013Z,99775.59
2024-03-07T10:25:19.306Z,99774.66
2024-03-07T10:27:50.165Z,99775.97
2024-03-07T10:30:22.156Z,99773.75
2024-03-07T10:32:52.811Z,99775.78
2024-03-07T10:35:26.367Z,99795.59
2024-03-07T10:37:56.995Z,99789.41
2024-03-07T10:40:24.357Z,99792.06
2024-03-07T10:42:55.483Z,99783.72
2024-03-07T10:45:22.886Z,99792.16
2024-03-07T10:47:57.490Z,99791.16
2024-03-07T10:50:30.314Z,99793.34
2024-03-07T10:53:03.712Z,99788.47
2024-03-07T10:55:31.172Z,99785.78
2024-03-07T10:58:07.598Z,99791.81
2024-03-07T11:00:38.513Z,99794.13
2024-03-07T11:03:08.469Z,99783.75
2024-03-07T11:05:35.638Z,99790.03
2024-03-07T11:08:08.610Z,99784.28
2024-03-07T11:10:37.055Z,99795.59
2024-03-07T11:13:05.553Z,99787.25
2024-03-07T11:15:34.333Z,99790.13
2024-03-07T11:18:01.573Z,99793.06
2024-03-07T11:20:36.436Z,99781.69
2024-03-07T11:23:39.807Z,99791.03
2024-03-07T11:26:11.704Z,99787.91
2024-03-07T11:28:43.653Z,99785.41
2024-03-07T11:31:25.474Z,99783.00
2024-03-07T11:34:20.776Z,99787.44
2024-03-07T11:36:50.807Z,99791.13
2024-03-07T11:39:44.197Z,99787.63
2024-03-07T11:42:20.945Z,99780.97
2024-03-07T11:44:48.387Z,99781.78
2024-03-07T11:47:14.979Z,99774.28
2024-03-07T11:49:41.634Z,99780.00
2024-03-07T11:52:14.416Z,99778.38
2024-03-07T11:54:42.356Z,99774.09
2024-03-07T11:57:14.186Z,99780.97
2024-03-07T11:59:47.003Z,99772.50
2024-03-07T12:02:16.269Z,99766.69
2024-03-07T12:04:43.303Z,99765.78
2024-03-07T12:07:11.608Z,99769.66
2024-03-07T12:09:39.336Z,99770.59
2024-03-07T12:12:07.287Z,99774.81
2024-03-07T12:14:35.281Z,99771.25
2024-03-07T12:17:05.369Z,99775.59
2024-03-07T12:19:33.825Z,99760.25
2024-03-07T12:22:04.167Z,99773.91
2024-03-07T12:24:31.165Z,99777.25
2024-03-07T12:27:11.378Z,99780.00
2024-03-07T12:29:39.661Z,99776.63
2024-03-07T12:32:11.789Z,99776.50
2024-03-07T12:34:41.899Z,99767.25
2024-03-07T12:37:10.502Z,99770.41
2024-03-07T12:39:39.863Z,99759.47
2024-03-07T12:42:07.066Z,99776.22
2024-03-07T12:44:43.833Z,99776.63
2024-03-07T12:47:11.864Z,99757.34
2024-03-07T12:49:38.590Z,99776.50
2024-03-07T12:52:06.911Z,99775.59
2024-03-07T12:54:33.428Z,99768.09
2024-03-07T12:56:59.956Z,99765.50
2024-03-07T12:59:26.821Z,99776.31
2024-03-07T13:01:55.360Z,99769.56
2024-03-07T13:04:21.893Z,99783.16
2024-03-07T13:06:48.524Z,99782.25
2024-03-07T13:09:15.048Z,99772.25
2024-03-07T13:11:48.822Z,99777.34
2024-03-07T13:14:15.589Z,99780.56
2024-03-07T13:16:44.220Z,99781.41
2024-03-07T13:19:13.082Z,99779.09
2024-03-07T13:21:40.436Z,99789.19
2024-03-07T13:24:07.687Z,99786.22
2024-03-07T13:26:34.247Z,99787.97
2024-03-07T13:29:03.616Z,99776.19
2024-03-07T13:31:31.071Z,99782.97
2024-03-07T13:33:57.620Z,99779.81
2024-03-07T13:36:26.382Z,99785.84
2024-03-07T13:38:55.599Z,99792.56
2024-03-07T13:41:22.642Z,99791.84
2024-03-07T13:43:49.665Z,99779.06
2024-03-07T13:46:18.959Z,99792.69
2024-03-07T13:48:45.613Z,99776.66
2024-03-07T13:51:16.211Z,99793.41
2024-03-07T13:53:48.714Z,99785.00
2024-03-07T13:56:36.831Z,99800.19
2024-03-07T13:59:09.324Z,99794.44
2024-03-07T14:01:54.661Z,99797.88
2024-03-07T14:04:42.855Z,99793.59
2024-03-07T14:07:13.128Z,99800.53
2024-03-07T14:09:55.142Z,99798.97
2024-03-07T14:12:50.257Z,99808.31
2024-03-07T14:15:57.945Z,99806.75
2024-03-07T14:19:04.771Z,99807.72
2024-03-07T14:22:05.603Z,99802.94
2024-03-07T14:25:06.769Z,99810.75
2024-03-07T14:27:51.709Z,99804.03
2024-03-07T14:30:46.640Z,99808.97
2024-03-07T14:33:14.501Z,99809.28
2024-03-07T14:36:02.321Z,99802.78
2024-03-07T14:38:42.150Z,99807.94
2024-03-07T14:41:13.649Z,99807.13
2024-03-07T14:43:42.150Z,99795.41
2024-03-07T14:46:13.678Z,99800.41
2024-03-07T14:48:41.700Z,99810.47
2024-03-07T14:51:10.449Z,99803.94
2024-03-07T14:53:37.154Z,99816.72
2024-03-07T14:56:06.189Z,99808.19
2024-03-07T14:58:32.809Z,99803.19
2024-03-07T15:00:59.413Z,99809.84
2024-03-07T15:03:30.281Z,99805.78
2024-03-07T15:05:57.536Z,99811.78
2024-03-07T15:08:25.607Z,99810.28
2024-03-07T15:10:58.675Z,99814.63
2024-03-07T15:13:25.275Z,99816.50
2024-03-07T15:15:51.791Z,99825.31
2024-03-07T15:18:18.458Z,99824.50
2024-03-07T15:20:45.029Z,99821.34
2024-03-07T15:23:13.016Z,99823.94
2024-03-07T15:25:39.717Z,99834.34
2024-03-07T15:28:06.282Z,99822.50
2024-03-07T15:30:36.474Z,99826.66
2024-03-07T15:33:05.540Z,99823.53
2024-03-07T15:35:32.457Z,99826.94
2024-03-07T15:37:59.037Z,99824.50
2024-03-07T15:40:25.663Z,99838.03
2024-03-07T15:42:52.479Z,99827.75
2024-03-07T15:45:25.561Z,99832.13
2024-03-07T15:48:15.754Z,99832.47
2024-03-07T15:50:45.433Z,99833.53
2024-03-07T15:53:11.994Z,99833.72
2024-03-07T15:55:39.087Z,99835.47
2024-03-07T15:58:05.835Z,99840.53
2024-03-07T16:00:33.786Z,99832.06
2024-03-07T16:03:04.722Z,99840.72
2024-03-07T16:05:34.584Z,99834.97
2024-03-07T16:08:03.630Z,99834.88
2024-03-07T16:10:34.053Z,99843.81
2024-03-07T16:13:02.419Z,99831.38
2024-03-07T16:15:39.923Z,99840.88
2024-03-07T16:18:10.811Z,99849.47
2024-03-07T16:20:38.740Z,99847.22
2024-03-07T16:23:06.203Z,99840.56
2024-03-07T16:25:40.413Z,99842.63
2024-03-07T16:28:08.627Z,99855.63
2024-03-07T16:30:36.478Z,99844.03
2024-03-07T16:33:04.092Z,99857.53
2024-03-07T16:35:34.985Z,99850.19
2024-03-07T16:38:02.325Z,99860.59
2024-03-07T16:40:29.874Z,99864.13
2024-03-07T16:43:01.855Z,99868.69
2024-03-07T16:45:30.888Z,99871.09
2024-03-07T16:48:03.582Z,99870.28
2024-03-07T16:50:32.220Z,99874.84
2024-03-07T16:53:05.798Z,99882.69
2024-03-07T16:55:33.615Z,99881.09
2024-03-07T17:00:31.944Z,99883.00
2024-03-07T17:03:00.674Z,99889.16
2024-03-07T17:05:32.971Z,99883.28
2024-03-07T17:08:02.847Z,99884.31
2024-03-07T17:10:33.271Z,99893.78
2024-03-07T17:13:01.035Z,99895.63
2024-03-07T17:15:28.101Z,99891.59
2024-03-07T17:17:55.425Z,99894.19
2024-03-07T17:20:24.756Z,99906.19
2024-03-07T17:22:55.634Z,99897.16
2024-03-07T17:25:23.449Z,99897.91
2024-03-07T17:27:52.458Z,99892.31
2024-03-07T17:30:23.631Z,99896.56
2024-03-07T17:32:50.503Z,99896.56
2024-03-07T17:35:21.155Z,99912.91
2024-03-07T17:37:49.754Z,99905.28
2024-03-07T17:40:16.675Z,99902.69
2024-03-07T17:42:48.977Z,99911.16
2024-03-07T17:45:20.700Z,99910.38
2024-03-07T17:47:55.018Z,99904.66
2024-03-07T17:50:27.827Z,99913.19
2024-03-07T17:53:02.390Z,99910.81
2024-03-07T17:55:33.437Z,99914.25
2024-03-07T17:58:02.839Z,99916.91
2024-03-07T18:00:29.423Z,99919.56
2024-03-07T18:02:56.874Z,99923.81
2024-03-07T18:05:42.861Z,99921.31
2024-03-07T18:08:33.650Z,99905.34
2024-03-07T18:11:06.986Z,99926.53
2024-03-07T18:13:34.266Z,99921.53
2024-03-07T18:16:00.880Z,99912.25
2024-03-07T18:18:28.070Z,99924.13
2024-03-07T18:20:55.109Z,99920.06
2024-03-07T18:23:22.673Z,99917.41
2024-03-07T18:25:50.851Z,99929.34
2024-03-07T18:28:21.405Z,99909.22
2024-03-07T18:30:49.057Z,99926.81
2024-03-07T18:33:15.780Z,99928.63
2024-03-07T18:35:46.548Z,99929.63
2024-03-07T18:38:15.061Z,99927.34
2024-03-07T18:40:42.720Z,99935.81
2024-03-07T18:43:11.834Z,99929.97
2024-03-07T18:45:45.537Z,99936.97
2024-03-07T18:48:14.118Z,99932.78
2024-03-07T18:50:48.918Z,99935.38
2024-03-07T18:53:19.781Z,99929.59
2024-03-07T18:55:48.796Z,99928.06
2024-03-07T18:58:17.344Z,99934.84
2024-03-07T19:00:50.158Z,99944.38
2024-03-07T19:03:21.278Z,99935.91
2024-03-07T19:05:50.944Z,99946.97
2024-03-07T19:08:21.032Z,99940.16
2024-03-07T19:10:59.165Z,99945.53
2024-03-07T19:13:26.926Z,99949.69
2024-03-07T19:15:56.569Z,99947.97
2024-03-07T19:18:23.922Z,99942.16
2024-03-07T19:20:51.540Z,99952.28
2024-03-07T19:23:19.501Z,99953.06
2024-03-07T19:25:46.174Z,99957.38
2024-03-07T19:28:14.353Z,99958.22
2024-03-07T19:30:45.665Z,99947.19
2024-03-07T19:33:16.521Z,99952.44
2024-03-07T19:35:52.383Z,99948.16
2024-03-07T19:38:19.815Z,99949.84
2024-03-07T19:40:47.270Z,99955.75
2024-03-07T19:43:15.869Z,99959.19
2024-03-07T19:45:43.863Z,99958.34
2024-03-07T19:48:13.645Z,99944.28
2024-03-07T19:50:44.145Z,99962.81
2024-03-07T19:53:15.731Z,99961.22
2024-03-07T19:55:46.350Z,99963.09
2024-03-07T19:58:16.196Z,99957.38
2024-03-07T20:00:48.399Z,99950.56
2024-03-07T20:03:21.936Z,99958.44
2024-03-07T20:05:49.810Z,99962.81
2024-03-07T20:08:17.218Z,99968.59
2024-03-07T20:10:46.473Z,99970.34
2024-03-07T20:13:15.425Z,99971.19
2024-03-07T20:15:42.002Z,99978.19
2024-03-07T20:18:08.618Z,99966.19
2024-03-07T20:20:37.745Z,99965.41
2024-03-07T20:23:05.084Z,99965.69
2024-03-07T20:25:33.138Z,99963.25
2024-03-07T20:27:59.722Z,99959.91
2024-03-07T20:30:34.777Z,99967.59
2024-03-07T20:33:02.059Z,99968.56
2024-03-07T20:35:28.675Z,99962.63
2024-03-07T20:37:56.047Z,99963.69
2024-03-07T20:40:25.512Z,99962.28
2024-03-07T20:42:55.659Z,99956.63
2024-03-07T20:45:23.010Z,99962.41
2024-03-07T20:47:50.562Z,99964.22
2024-03-07T20:50:21.160Z,99968.53
2024-03-07T20:52:51.270Z,99959.47
2024-03-07T20:55:20.011Z,99961.44
2024-03-07T20:57:47.791Z,99959.91
2024-03-07T21:00:16.159Z,99965.81
2024-03-07T21:02:48.232Z,99963.44
2024-03-07T21:05:14.746Z,99964.28
2024-03-07T21:07:47.995Z,99964.13
2024-03-07T21:10:16.025Z,99954.94
2024-03-07T21:12:45.888Z,99961.75
2024-03-07T21:15:13.588Z,99959.31
2024-03-07T21:17:41.803Z,99944.31
2024-03-07T21:20:13.601Z,99959.47
2024-03-07T21:22:41.561Z,99956.19
2024-03-07T21:25:09.237Z,99952.88
2024-03-07T21:27:38.894Z,99971.00
2024-03-07T21:30:06.119Z,99967.59
2024-03-07T21:32:33.655Z,99960.56
2024-03-07T21:35:00.366Z,99966.59
2024-03-07T21:37:26.922Z,99965.75
2024-03-07T21:39:53.730Z,99967.44
2024-03-07T21:42:20.213Z,99960.81
2024-03-07T21:44:46.851Z,99962.50
2024-03-07T21:47:14.555Z,99971.97
2024-03-07T21:49:43.292Z,99967.28
2024-03-07T21:52:18.273Z,99963.66
2024-03-07T21:54:47.299Z,99961.84
2024-03-07T21:57:14.573Z,99959.28
2024-03-07T21:59:41.521Z,99971.06
2024-03-07T22:02:10.218Z,99967.78
2024-03-07T22:04:44.104Z,99961.09
2024-03-07T22:07:19.625Z,99957.88
2024-03-07T22:09:46.411Z,99961.84
2024-03-07T22:12:12.977Z,99961.78
2024-03-07T22:14:40.921Z,99959.28
2024-03-07T22:17:07.865Z,99967.72
2024-03-07T22:19:37.720Z,99957.63
2024-03-07T22:22:05.167Z,99951.31
2024-03-07T22:24:31.823Z,99955.28
2024-03-07T22:26:58.507Z,99958.25
2024-03-07T22:29:25.227Z,99955.31
2024-03-07T22:31:52.237Z,99948.22
2024-03-07T22:34:18.766Z,99957.38
2024-03-07T22:36:45.565Z,99955.63
2024-03-07T22:39:13.597Z,99955.69
2024-03-07T22:41:43.604Z,99946.28
2024-03-07T22:44:11.786Z,99949.78
2024-03-07T22:46:38.846Z,99945.56
2024-03-07T22:49:05.988Z,99950.59
2024-03-07T22:51:32.826Z,99942.16
2024-03-07T22:53:59.539Z,99950.41
2024-03-07T22:56:26.359Z,99948.09
2024-03-07T22:58:53.686Z,99954.09
2024-03-07T23:01:29.776Z,99954.78
2024-03-07T23:03:56.284Z,99942.34
2024-03-07T23:06:22.814Z,99958.41
2024-03-07T23:08:49.374Z,99958.00
2024-03-07T23:11:17.223Z,99960.19
2024-03-07T23:13:43.924Z,99960.97
2024-03-07T23:16:10.403Z,99949.00
2024-03-07T23:18:37.686Z,99969.16
2024-03-07T23:21:04.358Z,99964.81
2024-03-07T23:23:31.028Z,99959.81
2024-03-07T23:25:57.496Z,99969.03
2024-03-07T23:28:24.719Z,99964.00
2024-03-07T23:30:51.997Z,99957.19
2024-03-07T23:33:19.516Z,99962.78
2024-03-07T23:35:46.258Z,99964.56
2024-03-07T23:38:14.279Z,99966.16
2024-03-07T23:40:40.737Z,99970.38
2024-03-07T23:43:07.863Z,99975.47
2024-03-07T23:45:34.370Z,99962.78
2024-03-07T23:48:01.003Z,99971.91
2024-03-07T23:50:27.937Z,99966.06
2024-03-07T23:52:57.489Z,99974.47
2024-03-07T23:55:24.705Z,99971.00
2024-03-07T23:57:51.242Z,99967.59
